sensor_id;sensor_type;location;lat;lon;timestamp;temperature;humidity
60309;DHT22;50313;52.894;6.492;2022-12-29T00:00:00;10.00;99.90
60309;DHT22;50313;52.894;6.492;2022-12-29T00:02:26;10.00;99.90
60309;DHT22;50313;52.894;6.492;2022-12-29T00:04:52;10.00;99.90
60309;DHT22;50313;52.894;6.492;2022-12-29T00:07:18;10.00;99.90
60309;DHT22;50313;52.894;6.492;2022-12-29T00:09:44;10.00;99.90
60309;DHT22;50313;52.894;6.492;2022-12-29T00:12:10;10.00;99.90
60309;DHT22;50313;52.894;6.492;2022-12-29T00:14:36;10.00;99.90
60309;DHT22;50313;52.894;6.492;2022-12-29T00:17:20;9.90;99.90
60309;DHT22;50313;52.894;6.492;2022-12-29T00:19:46;10.00;99.90
60309;DHT22;50313;52.894;6.492;2022-12-29T00:22:30;10.00;99.90
60309;DHT22;50313;52.894;6.492;2022-12-29T00:25:14;10.00;99.90
60309;DHT22;50313;52.894;6.492;2022-12-29T00:27:59;9.90;99.90
60309;DHT22;50313;52.894;6.492;2022-12-29T00:30:43;10.00;99.90
60309;DHT22;50313;52.894;6.492;2022-12-29T00:33:30;10.00;99.90
60309;DHT22;50313;52.894;6.492;2022-12-29T00:36:31;10.10;99.90
60309;DHT22;50313;52.894;6.492;2022-12-29T00:39:00;10.00;99.90
60309;DHT22;50313;52.894;6.492;2022-12-29T00:41:45;10.10;99.90
60309;DHT22;50313;52.894;6.492;2022-12-29T00:44:29;10.10;99.90
60309;DHT22;50313;52.894;6.492;2022-12-29T00:46:55;10.10;99.90
60309;DHT22;50313;52.894;6.492;2022-12-29T00:49:20;10.10;99.90
60309;DHT22;50313;52.894;6.492;2022-12-29T00:52:10;10.10;99.90
60309;DHT22;50313;52.894;6.492;2022-12-29T00:54:37;10.10;99.90
60309;DHT22;50313;52.894;6.492;2022-12-29T00:57:05;10.20;99.90
60309;DHT22;50313;52.894;6.492;2022-12-29T00:59:32;10.20;99.90
60309;DHT22;50313;52.894;6.492;2022-12-29T01:01:58;10.20;99.90
60309;DHT22;50313;52.894;6.492;2022-12-29T01:04:25;10.20;99.90
60309;DHT22;50313;52.894;6.492;2022-12-29T01:06:51;10.20;99.90
60309;DHT22;50313;52.894;6.492;2022-12-29T01:09:17;10.20;99.90
60309;DHT22;50313;52.894;6.492;2022-12-29T01:12:03;10.20;99.90
60309;DHT22;50313;52.894;6.492;2022-12-29T01:14:28;10.20;99.90
60309;DHT22;50313;52.894;6.492;2022-12-29T01:16:55;10.20;99.90
60309;DHT22;50313;52.894;6.492;2022-12-29T01:19:21;10.20;99.90
60309;DHT22;50313;52.894;6.492;2022-12-29T01:21:55;10.20;99.90
60309;DHT22;50313;52.894;6.492;2022-12-29T01:24:20;10.30;99.90
60309;DHT22;50313;52.894;6.492;2022-12-29T01:26:47;10.30;99.90
60309;DHT22;50313;52.894;6.492;2022-12-29T01:29:13;10.30;99.90
60309;DHT22;50313;52.894;6.492;2022-12-29T01:31:39;10.30;99.90
60309;DHT22;50313;52.894;6.492;2022-12-29T01:34:06;10.40;99.90
60309;DHT22;50313;52.894;6.492;2022-12-29T01:36:31;10.40;99.90
60309;DHT22;50313;52.894;6.492;2022-12-29T01:38:57;10.40;99.90
60309;DHT22;50313;52.894;6.492;2022-12-29T01:41:23;10.40;99.90
60309;DHT22;50313;52.894;6.492;2022-12-29T01:43:51;10.40;99.90
60309;DHT22;50313;52.894;6.492;2022-12-29T01:46:28;10.40;99.90
60309;DHT22;50313;52.894;6.492;2022-12-29T01:51:37;10.50;99.90
60309;DHT22;50313;52.894;6.492;2022-12-29T01:54:08;10.40;99.90
60309;DHT22;50313;52.894;6.492;2022-12-29T01:56:35;10.50;99.90
60309;DHT22;50313;52.894;6.492;2022-12-29T01:59:05;10.50;99.90
60309;DHT22;50313;52.894;6.492;2022-12-29T02:01:32;10.50;99.90
60309;DHT22;50313;52.894;6.492;2022-12-29T02:03:58;10.60;99.90
60309;DHT22;50313;52.894;6.492;2022-12-29T02:06:29;10.50;99.90
60309;DHT22;50313;52.894;6.492;2022-12-29T02:08:56;10.50;99.90
60309;DHT22;50313;52.894;6.492;2022-12-29T02:11:25;10.50;99.90
60309;DHT22;50313;52.894;6.492;2022-12-29T02:13:52;10.50;99.90
60309;DHT22;50313;52.894;6.492;2022-12-29T02:23:13;10.70;99.90
60309;DHT22;50313;52.894;6.492;2022-12-29T02:31:41;10.80;99.90
60309;DHT22;50313;52.894;6.492;2022-12-29T02:40:22;10.60;99.90
60309;DHT22;50313;52.894;6.492;2022-12-29T02:43:04;10.50;99.90
60309;DHT22;50313;52.894;6.492;2022-12-29T02:48:29;10.60;99.90
60309;DHT22;50313;52.894;6.492;2022-12-29T02:51:09;10.50;99.90
60309;DHT22;50313;52.894;6.492;2022-12-29T02:53:38;10.50;99.90
60309;DHT22;50313;52.894;6.492;2022-12-29T02:56:32;10.50;99.90
60309;DHT22;50313;52.894;6.492;2022-12-29T02:58:57;10.50;99.90
60309;DHT22;50313;52.894;6.492;2022-12-29T03:10:30;10.60;99.90
60309;DHT22;50313;52.894;6.492;2022-12-29T03:16:11;10.60;99.90
60309;DHT22;50313;52.894;6.492;2022-12-29T03:21:34;10.60;99.90
60309;DHT22;50313;52.894;6.492;2022-12-29T03:24:24;10.60;99.90
60309;DHT22;50313;52.894;6.492;2022-12-29T03:26:53;10.60;99.90
60309;DHT22;50313;52.894;6.492;2022-12-29T03:29:20;10.60;99.90
60309;DHT22;50313;52.894;6.492;2022-12-29T03:31:48;10.50;99.90
60309;DHT22;50313;52.894;6.492;2022-12-29T03:34:15;10.50;99.90
60309;DHT22;50313;52.894;6.492;2022-12-29T03:36:53;10.50;99.90
60309;DHT22;50313;52.894;6.492;2022-12-29T03:39:22;10.40;99.90
60309;DHT22;50313;52.894;6.492;2022-12-29T03:41:52;10.40;99.90
60309;DHT22;50313;52.894;6.492;2022-12-29T03:44:21;10.50;99.90
60309;DHT22;50313;52.894;6.492;2022-12-29T03:46:46;10.40;99.90
60309;DHT22;50313;52.894;6.492;2022-12-29T03:49:12;10.50;99.90
60309;DHT22;50313;52.894;6.492;2022-12-29T03:51:38;10.50;99.90
60309;DHT22;50313;52.894;6.492;2022-12-29T03:54:04;10.50;99.90
60309;DHT22;50313;52.894;6.492;2022-12-29T03:56:29;10.50;99.90
60309;DHT22;50313;52.894;6.492;2022-12-29T03:58:55;10.50;99.90
60309;DHT22;50313;52.894;6.492;2022-12-29T04:01:21;10.50;99.90
60309;DHT22;50313;52.894;6.492;2022-12-29T04:03:46;10.50;99.90
60309;DHT22;50313;52.894;6.492;2022-12-29T04:06:12;10.40;99.90
60309;DHT22;50313;52.894;6.492;2022-12-29T04:08:38;10.40;99.90
60309;DHT22;50313;52.894;6.492;2022-12-29T04:11:03;10.40;99.90
60309;DHT22;50313;52.894;6.492;2022-12-29T04:13:30;10.30;99.90
60309;DHT22;50313;52.894;6.492;2022-12-29T04:15:55;10.30;99.90
60309;DHT22;50313;52.894;6.492;2022-12-29T04:18:21;10.20;99.90
60309;DHT22;50313;52.894;6.492;2022-12-29T04:20:47;10.20;99.90
60309;DHT22;50313;52.894;6.492;2022-12-29T04:23:33;10.20;99.90
60309;DHT22;50313;52.894;6.492;2022-12-29T04:25:59;10.10;99.90
60309;DHT22;50313;52.894;6.492;2022-12-29T04:28:25;10.00;99.90
60309;DHT22;50313;52.894;6.492;2022-12-29T04:30:51;9.90;99.90
60309;DHT22;50313;52.894;6.492;2022-12-29T04:33:17;9.90;99.90
60309;DHT22;50313;52.894;6.492;2022-12-29T04:35:43;9.80;99.90
60309;DHT22;50313;52.894;6.492;2022-12-29T04:38:09;9.70;99.90
60309;DHT22;50313;52.894;6.492;2022-12-29T04:40:35;9.70;99.90
60309;DHT22;50313;52.894;6.492;2022-12-29T04:43:00;9.70;99.90
60309;DHT22;50313;52.894;6.492;2022-12-29T04:45:26;9.60;99.90
60309;DHT22;50313;52.894;6.492;2022-12-29T04:47:52;9.60;99.90
60309;DHT22;50313;52.894;6.492;2022-12-29T04:50:17;9.60;99.90
60309;DHT22;50313;52.894;6.492;2022-12-29T04:52:43;9.70;99.90
60309;DHT22;50313;52.894;6.492;2022-12-29T04:55:09;9.70;99.90
60309;DHT22;50313;52.894;6.492;2022-12-29T04:57:35;9.80;99.90
60309;DHT22;50313;52.894;6.492;2022-12-29T05:00:00;9.90;99.90
60309;DHT22;50313;52.894;6.492;2022-12-29T05:02:26;9.90;99.90
60309;DHT22;50313;52.894;6.492;2022-12-29T05:04:52;9.80;99.90
60309;DHT22;50313;52.894;6.492;2022-12-29T05:07:18;9.80;99.90
60309;DHT22;50313;52.894;6.492;2022-12-29T05:09:44;9.90;99.90
60309;DHT22;50313;52.894;6.492;2022-12-29T05:12:10;9.90;99.90
60309;DHT22;50313;52.894;6.492;2022-12-29T05:14:35;9.80;99.90
60309;DHT22;50313;52.894;6.492;2022-12-29T05:17:01;9.80;99.90
60309;DHT22;50313;52.894;6.492;2022-12-29T05:19:27;9.70;99.90
60309;DHT22;50313;52.894;6.492;2022-12-29T05:21:52;9.70;99.90
60309;DHT22;50313;52.894;6.492;2022-12-29T05:24:19;9.60;99.90
60309;DHT22;50313;52.894;6.492;2022-12-29T05:26:45;9.60;99.90
60309;DHT22;50313;52.894;6.492;2022-12-29T05:29:11;9.60;99.90
60309;DHT22;50313;52.894;6.492;2022-12-29T05:31:36;9.60;99.90
60309;DHT22;50313;52.894;6.492;2022-12-29T05:34:02;9.50;99.90
60309;DHT22;50313;52.894;6.492;2022-12-29T05:36:28;9.60;99.90
60309;DHT22;50313;52.894;6.492;2022-12-29T05:38:54;9.50;99.90
60309;DHT22;50313;52.894;6.492;2022-12-29T05:41:20;9.50;99.90
60309;DHT22;50313;52.894;6.492;2022-12-29T05:43:46;9.50;99.90
60309;DHT22;50313;52.894;6.492;2022-12-29T05:46:11;9.60;99.90
60309;DHT22;50313;52.894;6.492;2022-12-29T05:48:37;9.50;99.90
60309;DHT22;50313;52.894;6.492;2022-12-29T05:51:04;9.40;99.90
60309;DHT22;50313;52.894;6.492;2022-12-29T05:53:30;9.50;99.90
60309;DHT22;50313;52.894;6.492;2022-12-29T05:55:55;9.50;99.90
60309;DHT22;50313;52.894;6.492;2022-12-29T05:58:21;9.60;99.90
60309;DHT22;50313;52.894;6.492;2022-12-29T06:00:47;9.60;99.90
60309;DHT22;50313;52.894;6.492;2022-12-29T06:03:12;9.60;99.90
60309;DHT22;50313;52.894;6.492;2022-12-29T06:05:38;9.60;99.90
60309;DHT22;50313;52.894;6.492;2022-12-29T06:08:04;9.60;99.90
60309;DHT22;50313;52.894;6.492;2022-12-29T06:10:30;9.60;99.90
60309;DHT22;50313;52.894;6.492;2022-12-29T06:12:55;9.50;99.90
60309;DHT22;50313;52.894;6.492;2022-12-29T06:15:21;9.50;99.90
60309;DHT22;50313;52.894;6.492;2022-12-29T06:17:47;9.60;99.90
60309;DHT22;50313;52.894;6.492;2022-12-29T06:20:13;9.60;99.90
60309;DHT22;50313;52.894;6.492;2022-12-29T06:22:38;9.50;99.90
60309;DHT22;50313;52.894;6.492;2022-12-29T06:25:04;9.40;99.90
60309;DHT22;50313;52.894;6.492;2022-12-29T06:27:31;9.40;99.90
60309;DHT22;50313;52.894;6.492;2022-12-29T06:29:57;9.50;99.90
60309;DHT22;50313;52.894;6.492;2022-12-29T06:32:23;9.40;99.90
60309;DHT22;50313;52.894;6.492;2022-12-29T06:34:48;9.50;99.90
60309;DHT22;50313;52.894;6.492;2022-12-29T06:37:14;9.50;99.90
60309;DHT22;50313;52.894;6.492;2022-12-29T06:39:40;9.50;99.90
60309;DHT22;50313;52.894;6.492;2022-12-29T06:42:06;9.50;99.90
60309;DHT22;50313;52.894;6.492;2022-12-29T06:44:32;9.50;99.90
60309;DHT22;50313;52.894;6.492;2022-12-29T06:46:57;9.50;99.90
60309;DHT22;50313;52.894;6.492;2022-12-29T06:49:23;9.50;99.90
60309;DHT22;50313;52.894;6.492;2022-12-29T06:51:49;9.60;99.90
60309;DHT22;50313;52.894;6.492;2022-12-29T06:54:15;9.40;99.90
60309;DHT22;50313;52.894;6.492;2022-12-29T06:56:41;9.60;99.90
60309;DHT22;50313;52.894;6.492;2022-12-29T06:59:08;9.50;99.90
60309;DHT22;50313;52.894;6.492;2022-12-29T07:01:34;9.50;99.90
60309;DHT22;50313;52.894;6.492;2022-12-29T07:04:04;9.40;99.90
60309;DHT22;50313;52.894;6.492;2022-12-29T07:06:30;9.50;99.90
60309;DHT22;50313;52.894;6.492;2022-12-29T07:08:55;9.50;99.90
60309;DHT22;50313;52.894;6.492;2022-12-29T07:11:23;9.60;99.90
60309;DHT22;50313;52.894;6.492;2022-12-29T07:13:49;9.60;99.90
60309;DHT22;50313;52.894;6.492;2022-12-29T07:16:14;9.60;99.90
60309;DHT22;50313;52.894;6.492;2022-12-29T07:18:40;9.50;99.90
60309;DHT22;50313;52.894;6.492;2022-12-29T07:21:06;9.40;99.90
60309;DHT22;50313;52.894;6.492;2022-12-29T07:23:32;9.40;99.90
60309;DHT22;50313;52.894;6.492;2022-12-29T07:26:01;9.50;99.90
60309;DHT22;50313;52.894;6.492;2022-12-29T07:28:27;9.50;99.90
60309;DHT22;50313;52.894;6.492;2022-12-29T07:30:53;9.50;99.90
60309;DHT22;50313;52.894;6.492;2022-12-29T07:33:19;9.60;99.90
60309;DHT22;50313;52.894;6.492;2022-12-29T07:35:44;9.50;99.90
60309;DHT22;50313;52.894;6.492;2022-12-29T07:38:10;9.50;99.90
60309;DHT22;50313;52.894;6.492;2022-12-29T07:40:43;9.60;99.90
60309;DHT22;50313;52.894;6.492;2022-12-29T07:43:09;9.60;99.90
60309;DHT22;50313;52.894;6.492;2022-12-29T07:45:34;9.60;99.90
60309;DHT22;50313;52.894;6.492;2022-12-29T07:48:00;9.50;99.90
60309;DHT22;50313;52.894;6.492;2022-12-29T07:50:28;9.50;99.90
60309;DHT22;50313;52.894;6.492;2022-12-29T07:52:53;9.50;99.90
60309;DHT22;50313;52.894;6.492;2022-12-29T07:55:19;9.50;99.90
60309;DHT22;50313;52.894;6.492;2022-12-29T07:57:45;9.50;99.90
60309;DHT22;50313;52.894;6.492;2022-12-29T08:00:11;9.50;99.90
60309;DHT22;50313;52.894;6.492;2022-12-29T08:02:37;9.50;99.90
60309;DHT22;50313;52.894;6.492;2022-12-29T08:05:03;9.50;99.90
60309;DHT22;50313;52.894;6.492;2022-12-29T08:07:29;9.50;99.90
60309;DHT22;50313;52.894;6.492;2022-12-29T08:09:55;9.60;99.90
60309;DHT22;50313;52.894;6.492;2022-12-29T08:12:20;9.50;99.90
60309;DHT22;50313;52.894;6.492;2022-12-29T08:14:46;9.60;99.90
60309;DHT22;50313;52.894;6.492;2022-12-29T08:17:12;9.60;99.90
60309;DHT22;50313;52.894;6.492;2022-12-29T08:19:38;9.60;99.90
60309;DHT22;50313;52.894;6.492;2022-12-29T08:22:04;9.60;99.90
60309;DHT22;50313;52.894;6.492;2022-12-29T08:24:29;9.60;99.90
60309;DHT22;50313;52.894;6.492;2022-12-29T08:26:55;9.60;99.90
60309;DHT22;50313;52.894;6.492;2022-12-29T08:29:21;9.60;99.90
60309;DHT22;50313;52.894;6.492;2022-12-29T08:31:47;9.60;99.90
60309;DHT22;50313;52.894;6.492;2022-12-29T08:34:13;9.60;99.90
60309;DHT22;50313;52.894;6.492;2022-12-29T08:36:39;9.60;99.90
60309;DHT22;50313;52.894;6.492;2022-12-29T08:39:04;9.60;99.90
60309;DHT22;50313;52.894;6.492;2022-12-29T08:41:30;9.60;99.90
60309;DHT22;50313;52.894;6.492;2022-12-29T08:43:56;9.70;99.90
60309;DHT22;50313;52.894;6.492;2022-12-29T08:46:22;9.70;99.90
60309;DHT22;50313;52.894;6.492;2022-12-29T08:48:48;9.70;99.90
60309;DHT22;50313;52.894;6.492;2022-12-29T08:51:13;9.70;99.90
60309;DHT22;50313;52.894;6.492;2022-12-29T08:53:39;9.70;99.90
60309;DHT22;50313;52.894;6.492;2022-12-29T08:56:06;9.70;99.90
60309;DHT22;50313;52.894;6.492;2022-12-29T08:58:31;9.80;99.90
60309;DHT22;50313;52.894;6.492;2022-12-29T09:00:58;9.80;99.90
60309;DHT22;50313;52.894;6.492;2022-12-29T09:03:24;9.80;99.90
60309;DHT22;50313;52.894;6.492;2022-12-29T09:05:54;9.70;99.90
60309;DHT22;50313;52.894;6.492;2022-12-29T09:08:20;9.70;99.90
60309;DHT22;50313;52.894;6.492;2022-12-29T09:10:46;9.70;99.90
60309;DHT22;50313;52.894;6.492;2022-12-29T09:13:13;9.60;99.90
60309;DHT22;50313;52.894;6.492;2022-12-29T09:15:39;9.60;99.90
60309;DHT22;50313;52.894;6.492;2022-12-29T09:18:05;9.60;99.90
60309;DHT22;50313;52.894;6.492;2022-12-29T09:20:31;9.60;99.90
60309;DHT22;50313;52.894;6.492;2022-12-29T09:22:57;9.60;99.90
60309;DHT22;50313;52.894;6.492;2022-12-29T09:25:22;9.60;99.90
60309;DHT22;50313;52.894;6.492;2022-12-29T09:27:50;9.50;99.90
60309;DHT22;50313;52.894;6.492;2022-12-29T09:30:18;9.50;99.90
60309;DHT22;50313;52.894;6.492;2022-12-29T09:32:44;9.60;99.90
60309;DHT22;50313;52.894;6.492;2022-12-29T09:35:10;9.50;99.90
60309;DHT22;50313;52.894;6.492;2022-12-29T09:37:36;9.60;99.90
60309;DHT22;50313;52.894;6.492;2022-12-29T09:40:02;9.60;99.90
60309;DHT22;50313;52.894;6.492;2022-12-29T09:45:43;9.70;99.90
60309;DHT22;50313;52.894;6.492;2022-12-29T09:48:16;9.60;99.90
60309;DHT22;50313;52.894;6.492;2022-12-29T09:50:56;9.60;99.90
60309;DHT22;50313;52.894;6.492;2022-12-29T09:53:30;9.50;99.90
60309;DHT22;50313;52.894;6.492;2022-12-29T09:55:59;9.40;99.90
60309;DHT22;50313;52.894;6.492;2022-12-29T09:58:39;9.30;99.90
60309;DHT22;50313;52.894;6.492;2022-12-29T10:01:19;9.30;99.90
60309;DHT22;50313;52.894;6.492;2022-12-29T10:03:52;9.20;99.90
60309;DHT22;50313;52.894;6.492;2022-12-29T10:09:25;9.10;99.90
60309;DHT22;50313;52.894;6.492;2022-12-29T10:15:51;9.00;99.90
60309;DHT22;50313;52.894;6.492;2022-12-29T10:23:48;8.90;99.90
60309;DHT22;50313;52.894;6.492;2022-12-29T10:26:21;8.90;99.90
60309;DHT22;50313;52.894;6.492;2022-12-29T10:28:55;8.90;99.90
60309;DHT22;50313;52.894;6.492;2022-12-29T10:31:25;8.80;99.90
60309;DHT22;50313;52.894;6.492;2022-12-29T10:33:58;8.90;99.90
60309;DHT22;50313;52.894;6.492;2022-12-29T10:36:41;8.80;99.90
60309;DHT22;50313;52.894;6.492;2022-12-29T10:44:30;9.00;99.90
60309;DHT22;50313;52.894;6.492;2022-12-29T10:47:05;9.00;99.90
60309;DHT22;50313;52.894;6.492;2022-12-29T10:49:37;9.00;99.90
60309;DHT22;50313;52.894;6.492;2022-12-29T10:52:04;9.00;99.90
60309;DHT22;50313;52.894;6.492;2022-12-29T10:54:46;9.00;99.90
60309;DHT22;50313;52.894;6.492;2022-12-29T10:57:31;9.00;99.90
60309;DHT22;50313;52.894;6.492;2022-12-29T10:59:58;8.90;99.90
60309;DHT22;50313;52.894;6.492;2022-12-29T11:07:36;9.00;99.90
60309;DHT22;50313;52.894;6.492;2022-12-29T11:10:21;9.10;99.90
60309;DHT22;50313;52.894;6.492;2022-12-29T11:13:24;9.10;99.90
60309;DHT22;50313;52.894;6.492;2022-12-29T11:15:50;9.20;99.90
60309;DHT22;50313;52.894;6.492;2022-12-29T11:20:48;9.50;99.90
60309;DHT22;50313;52.894;6.492;2022-12-29T11:23:28;9.50;99.90
60309;DHT22;50313;52.894;6.492;2022-12-29T11:26:14;9.60;99.90
60309;DHT22;50313;52.894;6.492;2022-12-29T11:28:43;9.60;99.90
60309;DHT22;50313;52.894;6.492;2022-12-29T11:31:10;9.50;99.90
60309;DHT22;50313;52.894;6.492;2022-12-29T11:33:38;9.50;99.90
60309;DHT22;50313;52.894;6.492;2022-12-29T11:36:13;9.50;99.90
60309;DHT22;50313;52.894;6.492;2022-12-29T11:38:54;9.40;99.90
60309;DHT22;50313;52.894;6.492;2022-12-29T11:41:29;9.40;99.90
60309;DHT22;50313;52.894;6.492;2022-12-29T11:43:58;9.30;99.90
60309;DHT22;50313;52.894;6.492;2022-12-29T11:46:31;9.30;99.90
60309;DHT22;50313;52.894;6.492;2022-12-29T11:48:59;9.30;99.90
60309;DHT22;50313;52.894;6.492;2022-12-29T11:51:44;9.30;99.90
60309;DHT22;50313;52.894;6.492;2022-12-29T11:54:22;9.30;99.90
60309;DHT22;50313;52.894;6.492;2022-12-29T11:56:49;9.20;99.90
60309;DHT22;50313;52.894;6.492;2022-12-29T12:02:25;9.30;99.90
60309;DHT22;50313;52.894;6.492;2022-12-29T12:04:59;9.40;99.90
60309;DHT22;50313;52.894;6.492;2022-12-29T12:10:06;9.50;99.90
60309;DHT22;50313;52.894;6.492;2022-12-29T12:12:49;9.50;99.90
60309;DHT22;50313;52.894;6.492;2022-12-29T12:15:24;9.60;99.90
60309;DHT22;50313;52.894;6.492;2022-12-29T12:20:53;9.70;99.90
60309;DHT22;50313;52.894;6.492;2022-12-29T12:23:36;9.70;99.90
60309;DHT22;50313;52.894;6.492;2022-12-29T12:26:14;9.70;99.90
60309;DHT22;50313;52.894;6.492;2022-12-29T12:29:01;9.60;99.90
60309;DHT22;50313;52.894;6.492;2022-12-29T12:32:03;9.50;99.90
60309;DHT22;50313;52.894;6.492;2022-12-29T12:34:37;9.40;99.90
60309;DHT22;50313;52.894;6.492;2022-12-29T12:40:00;9.20;99.90
60309;DHT22;50313;52.894;6.492;2022-12-29T12:48:24;9.40;99.90
60309;DHT22;50313;52.894;6.492;2022-12-29T13:16:15;9.60;99.90
60309;DHT22;50313;52.894;6.492;2022-12-29T13:24:15;9.60;99.90
60309;DHT22;50313;52.894;6.492;2022-12-29T13:29:45;9.50;99.90
60309;DHT22;50313;52.894;6.492;2022-12-29T13:32:24;9.40;99.90
60309;DHT22;50313;52.894;6.492;2022-12-29T13:37:52;9.30;99.90
60309;DHT22;50313;52.894;6.492;2022-12-29T13:40:23;9.40;99.90
60309;DHT22;50313;52.894;6.492;2022-12-29T13:42:50;9.50;99.90
60309;DHT22;50313;52.894;6.492;2022-12-29T13:45:20;9.40;99.90
60309;DHT22;50313;52.894;6.492;2022-12-29T13:48:05;9.40;99.90
60309;DHT22;50313;52.894;6.492;2022-12-29T13:50:36;9.30;99.90
60309;DHT22;50313;52.894;6.492;2022-12-29T13:59:17;9.30;99.90
60309;DHT22;50313;52.894;6.492;2022-12-29T14:01:58;9.20;99.90
60309;DHT22;50313;52.894;6.492;2022-12-29T14:04:30;9.20;99.90
60309;DHT22;50313;52.894;6.492;2022-12-29T14:07:18;9.20;99.90
60309;DHT22;50313;52.894;6.492;2022-12-29T14:09:50;9.10;99.90
60309;DHT22;50313;52.894;6.492;2022-12-29T14:12:42;9.10;99.90
60309;DHT22;50313;52.894;6.492;2022-12-29T14:17:38;9.10;99.90
60309;DHT22;50313;52.894;6.492;2022-12-29T14:20:15;9.00;99.90
60309;DHT22;50313;52.894;6.492;2022-12-29T14:25:56;8.90;99.90
60309;DHT22;50313;52.894;6.492;2022-12-29T14:28:29;9.00;99.90
60309;DHT22;50313;52.894;6.492;2022-12-29T14:30:57;9.00;99.90
60309;DHT22;50313;52.894;6.492;2022-12-29T14:33:24;8.90;99.90
60309;DHT22;50313;52.894;6.492;2022-12-29T14:35:53;8.90;99.90
60309;DHT22;50313;52.894;6.492;2022-12-29T14:38:22;8.90;99.90
60309;DHT22;50313;52.894;6.492;2022-12-29T14:40:49;8.90;99.90
60309;DHT22;50313;52.894;6.492;2022-12-29T14:43:25;9.00;99.90
60309;DHT22;50313;52.894;6.492;2022-12-29T14:45:59;9.00;99.90
60309;DHT22;50313;52.894;6.492;2022-12-29T14:48:36;8.90;99.90
60309;DHT22;50313;52.894;6.492;2022-12-29T14:51:20;8.90;99.90
60309;DHT22;50313;52.894;6.492;2022-12-29T14:53:51;8.90;99.90
60309;DHT22;50313;52.894;6.492;2022-12-29T14:56:19;8.90;99.90
60309;DHT22;50313;52.894;6.492;2022-12-29T14:58:55;8.80;99.90
60309;DHT22;50313;52.894;6.492;2022-12-29T15:03:58;8.70;99.90
60309;DHT22;50313;52.894;6.492;2022-12-29T15:06:29;8.60;99.90
60309;DHT22;50313;52.894;6.492;2022-12-29T15:15:00;8.70;99.90
60309;DHT22;50313;52.894;6.492;2022-12-29T15:17:29;8.70;99.90
60309;DHT22;50313;52.894;6.492;2022-12-29T15:19:57;8.60;99.90
60309;DHT22;50313;52.894;6.492;2022-12-29T15:22:24;8.60;99.90
60309;DHT22;50313;52.894;6.492;2022-12-29T15:24:52;8.50;99.90
60309;DHT22;50313;52.894;6.492;2022-12-29T15:27:23;8.50;99.90
60309;DHT22;50313;52.894;6.492;2022-12-29T15:29:58;8.50;99.90
60309;DHT22;50313;52.894;6.492;2022-12-29T15:32:26;8.50;99.90
60309;DHT22;50313;52.894;6.492;2022-12-29T15:34:55;8.40;99.90
60309;DHT22;50313;52.894;6.492;2022-12-29T15:37:34;8.40;99.90
60309;DHT22;50313;52.894;6.492;2022-12-29T15:40:04;8.30;99.90
60309;DHT22;50313;52.894;6.492;2022-12-29T15:45:13;8.30;99.90
60309;DHT22;50313;52.894;6.492;2022-12-29T15:47:41;8.30;99.90
60309;DHT22;50313;52.894;6.492;2022-12-29T15:50:22;8.30;99.90
60309;DHT22;50313;52.894;6.492;2022-12-29T15:52:48;8.20;99.90
60309;DHT22;50313;52.894;6.492;2022-12-29T15:55:34;8.30;99.90
60309;DHT22;50313;52.894;6.492;2022-12-29T15:58:04;8.20;99.90
60309;DHT22;50313;52.894;6.492;2022-12-29T16:00:32;8.30;99.90
60309;DHT22;50313;52.894;6.492;2022-12-29T16:03:01;8.40;99.90
60309;DHT22;50313;52.894;6.492;2022-12-29T16:05:41;8.30;99.90
60309;DHT22;50313;52.894;6.492;2022-12-29T16:10:55;8.40;99.90
60309;DHT22;50313;52.894;6.492;2022-12-29T16:13:28;8.50;99.90
60309;DHT22;50313;52.894;6.492;2022-12-29T16:16:12;8.50;99.90
60309;DHT22;50313;52.894;6.492;2022-12-29T16:18:39;8.50;99.90
60309;DHT22;50313;52.894;6.492;2022-12-29T16:21:12;8.50;99.90
60309;DHT22;50313;52.894;6.492;2022-12-29T16:23:43;8.50;99.90
60309;DHT22;50313;52.894;6.492;2022-12-29T16:26:16;8.50;99.90
60309;DHT22;50313;52.894;6.492;2022-12-29T16:28:43;8.50;99.90
60309;DHT22;50313;52.894;6.492;2022-12-29T16:31:22;8.50;99.90
60309;DHT22;50313;52.894;6.492;2022-12-29T16:33:50;8.50;99.90
60309;DHT22;50313;52.894;6.492;2022-12-29T16:36:30;8.50;99.90
60309;DHT22;50313;52.894;6.492;2022-12-29T16:41:40;8.30;99.90
60309;DHT22;50313;52.894;6.492;2022-12-29T16:44:32;8.10;99.90
60309;DHT22;50313;52.894;6.492;2022-12-29T16:46:59;7.40;99.90
60309;DHT22;50313;52.894;6.492;2022-12-29T16:49:25;7.30;99.90
60309;DHT22;50313;52.894;6.492;2022-12-29T16:51:53;7.20;99.90
60309;DHT22;50313;52.894;6.492;2022-12-29T16:54:32;7.00;99.90
60309;DHT22;50313;52.894;6.492;2022-12-29T16:56:58;6.90;99.90
60309;DHT22;50313;52.894;6.492;2022-12-29T17:01:59;6.80;99.90
60309;DHT22;50313;52.894;6.492;2022-12-29T17:04:26;6.80;99.90
60309;DHT22;50313;52.894;6.492;2022-12-29T17:06:54;6.70;99.90
60309;DHT22;50313;52.894;6.492;2022-12-29T17:09:22;6.70;99.90
60309;DHT22;50313;52.894;6.492;2022-12-29T17:11:50;6.60;99.90
60309;DHT22;50313;52.894;6.492;2022-12-29T17:16:56;6.60;99.90
60309;DHT22;50313;52.894;6.492;2022-12-29T17:19:29;6.60;99.90
60309;DHT22;50313;52.894;6.492;2022-12-29T17:21:55;6.60;99.90
60309;DHT22;50313;52.894;6.492;2022-12-29T17:24:21;6.60;99.90
60309;DHT22;50313;52.894;6.492;2022-12-29T17:26:50;6.60;99.90
60309;DHT22;50313;52.894;6.492;2022-12-29T17:29:38;6.70;99.90
60309;DHT22;50313;52.894;6.492;2022-12-29T17:32:08;6.70;99.90
60309;DHT22;50313;52.894;6.492;2022-12-29T17:34:36;6.80;99.90
60309;DHT22;50313;52.894;6.492;2022-12-29T17:37:02;6.80;99.90
60309;DHT22;50313;52.894;6.492;2022-12-29T17:39:28;6.90;99.90
60309;DHT22;50313;52.894;6.492;2022-12-29T17:41:54;6.90;99.90
60309;DHT22;50313;52.894;6.492;2022-12-29T17:44:20;7.00;99.90
60309;DHT22;50313;52.894;6.492;2022-12-29T17:46:47;7.10;99.90
60309;DHT22;50313;52.894;6.492;2022-12-29T17:49:16;7.20;99.90
60309;DHT22;50313;52.894;6.492;2022-12-29T17:51:43;7.20;99.90
60309;DHT22;50313;52.894;6.492;2022-12-29T17:54:23;7.30;99.90
60309;DHT22;50313;52.894;6.492;2022-12-29T17:56:50;7.40;99.90
60309;DHT22;50313;52.894;6.492;2022-12-29T17:59:16;7.50;99.90
60309;DHT22;50313;52.894;6.492;2022-12-29T18:01:44;7.50;99.90
60309;DHT22;50313;52.894;6.492;2022-12-29T18:04:16;7.60;99.90
60309;DHT22;50313;52.894;6.492;2022-12-29T18:06:42;7.60;99.90
60309;DHT22;50313;52.894;6.492;2022-12-29T18:09:09;7.60;99.90
60309;DHT22;50313;52.894;6.492;2022-12-29T18:11:40;7.60;99.90
60309;DHT22;50313;52.894;6.492;2022-12-29T18:14:16;7.70;99.90
60309;DHT22;50313;52.894;6.492;2022-12-29T18:16:42;7.70;99.90
60309;DHT22;50313;52.894;6.492;2022-12-29T18:19:08;7.70;99.90
60309;DHT22;50313;52.894;6.492;2022-12-29T18:21:35;7.80;99.90
60309;DHT22;50313;52.894;6.492;2022-12-29T18:24:01;7.80;99.90
60309;DHT22;50313;52.894;6.492;2022-12-29T18:26:28;7.80;99.90
60309;DHT22;50313;52.894;6.492;2022-12-29T18:28:57;7.80;99.90
60309;DHT22;50313;52.894;6.492;2022-12-29T18:31:28;7.80;99.90
60309;DHT22;50313;52.894;6.492;2022-12-29T18:33:56;7.70;99.90